Terminal Aerodrome Forecast
Issued by NWS Portland, OR

Home | Current Version | Previous Version | Text Only | Print | Product List | Glossary On
Versions: 1 2 3 4 5 6 7 8 9 10 11 12 13 14 15 16 17 18 19 20 21 22 23
000
FTUS46 KPQR 050526
TAFTTD
TAF
KTTD 050526Z 0506/0606 25005KT P6SM SCT035 SCT050
     FM051200 20005KT P6SM -RASN SCT015 OVC025
     FM052100 23007KT P6SM -SHRA SCT015 BKN025=

USA.gov is the U.S. government's official web portal to all federal, state and local government web resources and services.